Time;durP1;ratioP1;P1;durP2;ratioP2;P2;SDS_P1;SDS_P2;PMS_P1;PMS_P2;Temp;Humidity;BMP_temperature;BMP_pressure;BME280_temperature;BME280_humidity;BME280_pressure;Samples;Min_cycle;Max_cycle;Signal;HPM_P1;HPM_P2
2022/03/06 00:01:10;;;;;;;7.03;5.32;;;1.60;99.90;;;;;;5011416;28;20060;-75
2022/03/06 00:03:36;;;;;;;11.75;6.13;;;1.60;99.90;;;;;;5012399;28;20046;-75
2022/03/06 00:06:01;;;;;;;6.13;4.72;;;1.60;99.90;;;;;;4997528;28;20041;-75
2022/03/06 00:08:28;;;;;;;8.35;4.82;;;1.60;99.90;;;;;;5000851;28;20126;-75
2022/03/06 00:10:54;;;;;;;10.50;5.10;;;1.60;99.90;;;;;;5008224;28;20037;-76
2022/03/06 00:13:20;;;;;;;6.50;4.80;;;1.60;99.90;;;;;;5014498;28;20129;-75
2022/03/06 00:15:46;;;;;;;9.77;5.20;;;1.60;99.90;;;;;;5006194;28;20591;-76
2022/03/06 00:18:12;;;;;;;9.77;5.40;;;1.70;99.90;;;;;;5004908;28;20080;-75
2022/03/06 00:20:37;;;;;;;8.38;5.07;;;1.70;99.90;;;;;;4981814;28;20046;-76
2022/03/06 00:23:04;;;;;;;8.85;5.22;;;1.70;99.90;;;;;;5007591;28;20430;-76
2022/03/06 00:25:29;;;;;;;10.80;5.15;;;1.70;99.90;;;;;;5004099;28;20526;-75
2022/03/06 00:27:55;;;;;;;5.55;4.50;;;1.70;99.90;;;;;;5005449;28;20034;-75
2022/03/06 00:30:21;;;;;;;9.77;5.05;;;1.70;99.90;;;;;;4993648;28;20369;-75
2022/03/06 00:32:47;;;;;;;6.85;5.05;;;1.70;99.90;;;;;;5004402;28;20068;-75
2022/03/06 00:35:12;;;;;;;9.30;5.10;;;1.70;99.90;;;;;;5004486;28;20399;-75
2022/03/06 00:37:38;;;;;;;7.35;4.90;;;1.70;99.90;;;;;;4982444;28;20104;-76
2022/03/06 00:40:06;;;;;;;11.15;5.28;;;1.70;99.90;;;;;;5004731;28;20133;-75
2022/03/06 00:42:31;;;;;;;8.45;4.63;;;1.70;99.90;;;;;;4994298;28;20647;-74
2022/03/06 00:44:57;;;;;;;7.38;4.68;;;1.70;99.90;;;;;;5009538;28;20060;-76
2022/03/06 00:47:23;;;;;;;7.75;4.53;;;1.70;99.90;;;;;;4990625;28;20045;-76
2022/03/06 00:49:48;;;;;;;13.13;5.18;;;1.70;99.90;;;;;;5010438;28;20093;-76
2022/03/06 00:52:14;;;;;;;12.52;4.93;;;1.70;99.90;;;;;;4975238;28;20057;-75
2022/03/06 00:54:40;;;;;;;7.55;4.45;;;1.60;99.90;;;;;;5007383;28;20045;-75
2022/03/06 00:57:06;;;;;;;9.90;5.10;;;1.60;99.90;;;;;;4975105;28;20037;-75
2022/03/06 00:59:35;;;;;;;7.78;4.43;;;1.60;99.90;;;;;;4990862;28;20061;-75
2022/03/06 01:02:06;;;;;;;15.27;5.22;;;1.60;99.90;;;;;;5003762;28;20092;-75
2022/03/06 01:04:32;;;;;;;10.88;4.90;;;1.50;99.90;;;;;;5000280;28;20087;-75
2022/03/06 01:07:00;;;;;;;8.10;4.90;;;1.50;99.90;;;;;;4995326;28;20072;-75
2022/03/06 01:09:25;;;;;;;8.23;4.57;;;1.60;99.90;;;;;;5013736;28;20042;-75
2022/03/06 01:11:51;;;;;;;6.45;4.53;;;1.50;99.90;;;;;;4993562;28;20527;-75
2022/03/06 01:14:17;;;;;;;7.57;5.28;;;1.60;99.90;;;;;;5000956;28;20054;-75
2022/03/06 01:16:43;;;;;;;8.18;4.63;;;1.70;99.90;;;;;;5003556;28;20399;-76
2022/03/06 01:19:09;;;;;;;9.10;4.47;;;1.60;99.90;;;;;;4998289;28;20045;-75
2022/03/06 01:21:34;;;;;;;7.35;4.68;;;1.50;99.90;;;;;;5002421;28;20092;-75
2022/03/06 01:24:00;;;;;;;7.07;3.88;;;1.50;99.90;;;;;;4979739;28;20060;-76
2022/03/06 01:26:26;;;;;;;6.07;3.08;;;1.40;99.90;;;;;;5003516;28;20050;-75
2022/03/06 01:28:51;;;;;;;8.10;4.13;;;1.40;99.90;;;;;;4975169;28;20048;-76
2022/03/06 01:31:17;;;;;;;9.32;4.47;;;1.50;99.90;;;;;;5007016;28;20534;-76
2022/03/06 01:33:43;;;;;;;4.78;3.47;;;1.40;99.90;;;;;;5003949;28;20056;-75
2022/03/06 01:36:09;;;;;;;6.38;4.05;;;1.50;99.90;;;;;;5000384;28;20097;-75
2022/03/06 01:38:35;;;;;;;7.20;3.75;;;1.50;99.90;;;;;;4987220;28;20042;-75
2022/03/06 01:41:01;;;;;;;10.80;4.22;;;1.50;99.90;;;;;;4977573;28;20402;-75
2022/03/06 01:43:26;;;;;;;7.00;4.20;;;1.50;99.90;;;;;;5012117;28;20372;-76
2022/03/06 01:45:52;;;;;;;6.32;2.78;;;1.50;99.90;;;;;;5007965;28;20046;-75
2022/03/06 01:48:18;;;;;;;10.23;3.90;;;1.60;99.90;;;;;;4988445;28;20128;-76
2022/03/06 01:50:44;;;;;;;9.75;3.53;;;1.60;99.90;;;;;;5007939;28;20179;-75
2022/03/06 01:53:12;;;;;;;6.55;3.50;;;1.60;99.90;;;;;;5016221;28;20541;-75
2022/03/06 01:55:39;;;;;;;7.40;2.83;;;1.70;99.90;;;;;;4994614;28;20107;-75
2022/03/06 01:58:08;;;;;;;8.45;3.25;;;1.70;99.90;;;;;;5010521;28;20041;-75
2022/03/06 02:00:37;;;;;;;5.03;2.75;;;1.80;99.90;;;;;;5006452;28;20379;-76
2022/03/06 02:03:04;;;;;;;5.33;2.83;;;1.80;99.90;;;;;;5007198;28;20526;-76
2022/03/06 02:05:30;;;;;;;3.50;2.78;;;1.80;99.90;;;;;;5022769;28;20299;-75
2022/03/06 02:07:56;;;;;;;5.90;3.10;;;1.90;99.90;;;;;;5010243;28;20373;-75
2022/03/06 02:10:22;;;;;;;7.10;2.92;;;1.90;99.90;;;;;;5007204;28;20057;-75
2022/03/06 02:12:48;;;;;;;5.13;3.65;;;2.00;99.90;;;;;;5005795;28;20052;-77
2022/03/06 02:15:16;;;;;;;4.43;2.78;;;2.00;99.90;;;;;;5007985;28;20041;-76
2022/03/06 02:17:42;;;;;;;7.93;3.40;;;2.00;99.90;;;;;;5006396;28;20524;-77
2022/03/06 02:20:19;;;;;;;9.77;4.18;;;2.00;99.90;;;;;;5002359;28;20052;-77
2022/03/06 02:22:48;;;;;;;7.25;3.70;;;2.00;99.90;;;;;;5028897;28;20041;-76
2022/03/06 02:25:19;;;;;;;10.65;4.53;;;2.10;99.90;;;;;;5026815;28;20042;-76
2022/03/06 02:27:45;;;;;;;7.75;3.35;;;2.10;99.90;;;;;;5008720;28;20058;-75
2022/03/06 02:30:17;;;;;;;8.93;3.03;;;2.10;99.90;;;;;;5025860;28;20068;-76
2022/03/06 02:32:48;;;;;;;5.28;3.63;;;2.10;99.90;;;;;;5027546;28;20045;-76
2022/03/06 02:35:15;;;;;;;4.22;3.03;;;2.10;99.90;;;;;;5039471;28;20042;-75
2022/03/06 02:37:41;;;;;;;4.97;3.30;;;2.10;99.90;;;;;;5006468;28;20046;-77
2022/03/06 02:40:10;;;;;;;7.57;3.30;;;2.10;99.90;;;;;;5017717;28;20033;-76
2022/03/06 02:42:38;;;;;;;4.65;3.30;;;2.10;99.90;;;;;;5006021;28;20049;-76
2022/03/06 02:45:13;;;;;;;10.63;3.85;;;2.10;99.90;;;;;;5024956;28;20195;-75
2022/03/06 02:47:40;;;;;;;6.90;3.22;;;2.10;99.90;;;;;;5021892;28;21303;-77
2022/03/06 02:50:07;;;;;;;6.03;2.78;;;2.10;99.90;;;;;;5008522;28;20048;-76
2022/03/06 02:52:33;;;;;;;3.33;2.13;;;2.10;99.90;;;;;;5010058;28;20049;-76
2022/03/06 02:54:59;;;;;;;7.47;3.70;;;2.20;99.90;;;;;;5021774;28;20056;-76
2022/03/06 02:57:25;;;;;;;4.97;2.63;;;2.20;99.90;;;;;;5020233;28;20110;-75
2022/03/06 02:59:51;;;;;;;4.13;3.25;;;2.20;99.90;;;;;;5017497;28;20041;-76
2022/03/06 03:02:17;;;;;;;10.52;3.22;;;2.20;99.90;;;;;;5032342;28;20041;-76
2022/03/06 03:04:43;;;;;;;4.28;2.78;;;2.20;99.90;;;;;;5014989;28;20676;-75
2022/03/06 03:07:09;;;;;;;4.25;2.95;;;2.20;99.90;;;;;;5015430;28;20044;-76
2022/03/06 03:09:36;;;;;;;4.28;2.70;;;2.20;99.90;;;;;;5010897;28;20446;-76
2022/03/06 03:12:02;;;;;;;6.13;3.10;;;2.20;99.90;;;;;;4986781;28;20052;-76
2022/03/06 03:14:31;;;;;;;7.95;2.90;;;2.20;99.90;;;;;;4987578;28;20046;-77
2022/03/06 03:16:58;;;;;;;5.47;2.95;;;2.20;99.90;;;;;;4998069;28;20112;-76
2022/03/06 03:19:24;;;;;;;3.75;2.67;;;2.20;99.90;;;;;;5002806;28;20526;-75
2022/03/06 03:21:50;;;;;;;5.95;2.75;;;2.10;99.90;;;;;;5017174;28;20480;-77
2022/03/06 03:24:16;;;;;;;5.68;2.97;;;2.10;99.90;;;;;;5007082;28;20088;-76
2022/03/06 03:26:41;;;;;;;5.60;2.85;;;2.10;99.90;;;;;;5004946;28;20049;-76
2022/03/06 03:29:07;;;;;;;6.28;3.70;;;2.10;99.90;;;;;;4983689;28;20431;-76
2022/03/06 03:31:33;;;;;;;6.05;3.17;;;2.00;99.90;;;;;;5007575;28;20034;-76
2022/03/06 03:33:59;;;;;;;7.32;3.05;;;2.00;99.90;;;;;;5020446;28;20442;-75
2022/03/06 03:36:25;;;;;;;7.15;3.20;;;2.00;99.90;;;;;;4993898;28;20045;-76
2022/03/06 03:38:51;;;;;;;9.13;4.13;;;1.90;99.90;;;;;;4976489;28;20045;-76
2022/03/06 03:41:16;;;;;;;16.02;3.38;;;1.90;99.90;;;;;;5006939;28;20050;-75
2022/03/06 03:43:42;;;;;;;6.00;3.17;;;1.90;99.90;;;;;;4982430;28;20062;-75
2022/03/06 03:46:08;;;;;;;9.52;3.20;;;1.90;99.90;;;;;;4947963;28;20061;-75
2022/03/06 03:48:33;;;;;;;6.00;2.80;;;1.90;99.90;;;;;;4968169;28;20042;-76
2022/03/06 03:50:59;;;;;;;5.50;2.80;;;1.80;99.90;;;;;;4999224;28;20057;-76
2022/03/06 03:53:25;;;;;;;4.97;2.75;;;1.80;99.90;;;;;;4968550;28;20046;-75
2022/03/06 03:55:52;;;;;;;6.55;2.83;;;1.80;99.90;;;;;;4988410;28;20055;-76
2022/03/06 03:58:18;;;;;;;2.85;2.55;;;1.70;99.90;;;;;;4976462;28;20038;-75
2022/03/06 04:00:45;;;;;;;3.33;2.80;;;1.70;99.90;;;;;;4985401;28;20054;-76
2022/03/06 04:03:11;;;;;;;6.15;2.65;;;1.70;99.90;;;;;;4966821;28;20427;-75
2022/03/06 04:05:37;;;;;;;8.82;3.05;;;1.70;99.90;;;;;;4958245;28;20045;-76
2022/03/06 04:08:03;;;;;;;5.65;2.45;;;1.60;99.90;;;;;;4986400;28;20038;-76
2022/03/06 04:10:29;;;;;;;3.22;2.50;;;1.60;99.90;;;;;;4982232;28;20104;-76
2022/03/06 04:12:56;;;;;;;4.47;2.45;;;1.60;99.90;;;;;;4986078;28;20054;-76
2022/03/06 04:15:22;;;;;;;5.90;2.78;;;1.60;99.90;;;;;;4965947;28;20039;-75
2022/03/06 04:17:47;;;;;;;3.22;2.20;;;1.60;99.90;;;;;;4983593;28;20045;-75
2022/03/06 04:20:13;;;;;;;7.43;3.08;;;1.60;99.90;;;;;;4976227;28;20069;-76
2022/03/06 04:22:39;;;;;;;5.30;2.72;;;1.60;99.90;;;;;;4998104;28;20081;-75
2022/03/06 04:25:05;;;;;;;6.45;2.83;;;1.50;99.90;;;;;;4985291;28;20115;-76
2022/03/06 04:27:31;;;;;;;4.25;2.70;;;1.50;99.90;;;;;;4979410;28;20081;-75
2022/03/06 04:29:56;;;;;;;6.75;2.75;;;1.50;99.90;;;;;;4973159;28;20129;-75
2022/03/06 04:32:23;;;;;;;5.68;2.72;;;1.40;99.90;;;;;;4984707;28;20465;-76
2022/03/06 04:34:49;;;;;;;5.47;2.55;;;1.30;99.90;;;;;;4983085;28;20095;-76
2022/03/06 04:37:15;;;;;;;4.78;2.60;;;1.30;99.90;;;;;;4979010;28;20050;-76
2022/03/06 04:39:40;;;;;;;4.03;2.22;;;1.30;99.90;;;;;;4987172;28;20069;-76
2022/03/06 04:42:06;;;;;;;10.73;2.95;;;1.40;99.90;;;;;;4969383;28;20042;-76
2022/03/06 04:44:32;;;;;;;3.78;2.65;;;1.30;99.90;;;;;;4988787;28;20559;-76
2022/03/06 04:46:57;;;;;;;5.82;2.50;;;1.20;99.90;;;;;;5024648;28;20045;-76
2022/03/06 04:49:25;;;;;;;8.88;2.60;;;1.20;99.90;;;;;;5004152;28;20057;-76
2022/03/06 04:51:51;;;;;;;5.95;2.40;;;1.10;99.90;;;;;;5003587;28;20053;-77
2022/03/06 04:54:16;;;;;;;6.43;2.85;;;1.10;99.90;;;;;;4978952;28;20412;-76
2022/03/06 04:56:42;;;;;;;5.75;2.50;;;1.20;99.90;;;;;;5003572;28;20046;-75
2022/03/06 04:59:08;;;;;;;7.07;2.47;;;1.10;99.90;;;;;;5004914;28;20053;-76
2022/03/06 05:01:34;;;;;;;5.10;2.58;;;1.10;99.90;;;;;;4985525;28;20104;-75
2022/03/06 05:04:03;;;;;;;5.07;2.60;;;1.00;99.90;;;;;;5004822;28;20495;-76
2022/03/06 05:06:29;;;;;;;3.63;2.30;;;1.00;99.90;;;;;;5000097;28;20468;-76
2022/03/06 05:09:00;;;;;;;4.85;2.50;;;1.00;99.90;;;;;;4991906;28;20110;-76
2022/03/06 05:11:26;;;;;;;3.58;2.10;;;1.00;99.90;;;;;;5003687;28;20034;-76
2022/03/06 05:13:52;;;;;;;5.50;2.05;;;1.00;99.90;;;;;;4982378;28;20141;-76
2022/03/06 05:16:18;;;;;;;4.82;2.63;;;0.90;99.90;;;;;;5011305;28;20037;-75
2022/03/06 05:18:43;;;;;;;8.95;2.28;;;0.90;99.90;;;;;;5007734;28;20091;-76
2022/03/06 05:21:09;;;;;;;2.80;2.13;;;0.90;99.90;;;;;;5013517;28;20060;-76
2022/03/06 05:23:35;;;;;;;4.32;2.17;;;0.80;99.90;;;;;;5004121;28;20128;-76
2022/03/06 05:26:01;;;;;;;2.67;1.88;;;0.80;99.90;;;;;;5010373;28;20053;-76
2022/03/06 05:28:27;;;;;;;3.40;1.98;;;0.80;99.90;;;;;;5007234;28;20052;-75
2022/03/06 05:30:53;;;;;;;9.57;2.38;;;0.80;99.90;;;;;;5003334;28;20418;-76
2022/03/06 05:33:19;;;;;;;6.00;2.58;;;0.70;99.90;;;;;;5005273;28;20052;-75
2022/03/06 05:35:49;;;;;;;8.50;2.20;;;0.70;99.90;;;;;;4978527;28;20447;-76
2022/03/06 05:38:14;;;;;;;5.38;2.63;;;0.60;99.90;;;;;;5010429;28;20037;-76
2022/03/06 05:40:40;;;;;;;7.38;2.35;;;0.50;99.90;;;;;;5002165;28;20045;-75
2022/03/06 05:43:06;;;;;;;7.15;2.53;;;0.50;99.90;;;;;;5011357;28;20056;-75
2022/03/06 05:45:32;;;;;;;5.95;2.30;;;0.50;99.90;;;;;;5004271;28;20046;-76
2022/03/06 05:47:58;;;;;;;2.30;2.10;;;0.50;99.90;;;;;;4986548;28;20041;-76
2022/03/06 05:50:24;;;;;;;5.53;2.42;;;0.50;99.90;;;;;;5001257;28;20507;-76
2022/03/06 05:52:50;;;;;;;6.95;2.58;;;0.50;99.90;;;;;;4973356;28;20052;-77
2022/03/06 05:55:16;;;;;;;6.15;2.05;;;0.50;99.90;;;;;;5001289;28;20049;-76
2022/03/06 05:57:42;;;;;;;2.85;2.15;;;0.50;99.90;;;;;;5009842;28;20042;-76
2022/03/06 06:00:08;;;;;;;3.47;1.92;;;0.40;99.90;;;;;;4985146;28;20095;-75
2022/03/06 06:02:40;;;;;;;6.28;2.40;;;0.40;99.90;;;;;;4996432;28;20120;-76
2022/03/06 06:05:08;;;;;;;5.80;2.17;;;0.50;99.90;;;;;;5022587;28;20050;-76
2022/03/06 06:07:36;;;;;;;5.93;1.98;;;0.50;99.90;;;;;;5002301;28;20041;-77
2022/03/06 06:10:02;;;;;;;3.28;2.80;;;0.50;99.90;;;;;;4980369;28;20058;-76
2022/03/06 06:12:28;;;;;;;3.13;2.10;;;0.50;99.90;;;;;;4989913;28;20045;-77
2022/03/06 06:14:54;;;;;;;5.03;2.00;;;0.40;99.90;;;;;;4971558;28;20400;-76
2022/03/06 06:17:20;;;;;;;6.80;2.05;;;0.40;99.90;;;;;;4966471;28;20155;-76
2022/03/06 06:19:46;;;;;;;3.92;1.65;;;0.40;99.90;;;;;;4974130;28;20129;-77
2022/03/06 06:22:11;;;;;;;6.78;1.70;;;0.50;99.90;;;;;;4972346;28;20121;-76
2022/03/06 06:24:37;;;;;;;2.75;1.70;;;0.50;99.90;;;;;;4984719;28;20042;-75
2022/03/06 06:27:03;;;;;;;13.25;1.90;;;0.50;99.90;;;;;;4977662;28;20078;-76
2022/03/06 06:29:29;;;;;;;4.70;1.60;;;0.50;99.90;;;;;;4988848;28;20039;-76
2022/03/06 06:31:55;;;;;;;4.90;1.98;;;0.50;99.90;;;;;;4986779;28;20061;-75
2022/03/06 06:34:22;;;;;;;2.83;2.47;;;0.60;99.90;;;;;;4982729;28;20497;-76
2022/03/06 06:36:48;;;;;;;5.53;1.75;;;0.70;99.90;;;;;;4986520;28;20046;-76
2022/03/06 06:39:14;;;;;;;3.75;1.33;;;0.70;99.90;;;;;;4996489;28;20044;-75
2022/03/06 06:41:41;;;;;;;3.38;1.50;;;0.80;99.90;;;;;;4973787;28;20092;-75
2022/03/06 06:44:08;;;;;;;3.78;1.98;;;0.90;99.90;;;;;;4977740;28;20115;-76
2022/03/06 06:46:34;;;;;;;1.40;1.30;;;1.00;99.90;;;;;;4990382;28;20369;-75
2022/03/06 06:49:00;;;;;;;4.95;1.88;;;1.00;99.90;;;;;;5006507;28;20424;-76
2022/03/06 06:51:27;;;;;;;2.15;1.55;;;1.10;99.90;;;;;;4987816;28;20029;-76
2022/03/06 06:53:53;;;;;;;3.53;1.40;;;1.10;99.90;;;;;;5006164;28;20045;-76
2022/03/06 06:56:19;;;;;;;8.85;1.63;;;1.20;99.90;;;;;;5016565;28;20087;-75
2022/03/06 06:58:45;;;;;;;3.92;1.30;;;1.20;99.90;;;;;;5005810;28;20077;-76
2022/03/06 07:01:11;;;;;;;1.65;1.52;;;1.30;99.90;;;;;;5008507;28;20053;-75
2022/03/06 07:03:37;;;;;;;5.10;1.45;;;1.30;99.90;;;;;;5005445;28;20120;-76
2022/03/06 07:06:03;;;;;;;5.38;1.42;;;1.40;99.90;;;;;;4985548;28;20128;-76
2022/03/06 07:08:29;;;;;;;7.20;2.03;;;1.50;99.90;;;;;;5000112;28;20510;-75
2022/03/06 07:10:54;;;;;;;7.28;1.65;;;1.60;99.90;;;;;;5007510;28;20041;-76
2022/03/06 07:13:20;;;;;;;3.20;1.13;;;1.60;99.90;;;;;;5002280;28;20088;-75
2022/03/06 07:15:46;;;;;;;6.65;2.20;;;1.80;99.90;;;;;;5002441;28;20044;-76
2022/03/06 07:18:12;;;;;;;1.73;1.20;;;1.80;99.90;;;;;;4989645;28;20041;-76
2022/03/06 07:20:38;;;;;;;4.47;1.40;;;1.80;99.90;;;;;;5014319;28;20040;-76
2022/03/06 07:23:04;;;;;;;7.68;1.52;;;1.80;99.90;;;;;;5017657;28;20049;-76
2022/03/06 07:25:31;;;;;;;4.32;1.42;;;1.80;99.90;;;;;;5010183;28;20056;-76
2022/03/06 07:27:57;;;;;;;6.30;1.58;;;1.90;99.90;;;;;;5008035;28;20041;-76
2022/03/06 07:30:23;;;;;;;4.90;1.60;;;1.90;99.90;;;;;;5026697;28;20087;-76
2022/03/06 07:32:51;;;;;;;3.00;1.50;;;1.90;99.90;;;;;;5019433;28;20131;-76
2022/03/06 07:35:19;;;;;;;5.88;1.52;;;1.90;99.90;;;;;;5003967;28;20033;-76
2022/03/06 07:37:46;;;;;;;1.77;1.33;;;2.00;99.90;;;;;;5025458;28;20731;-76
2022/03/06 07:40:14;;;;;;;3.88;1.50;;;2.10;99.90;;;;;;5025747;28;20457;-77
2022/03/06 07:42:40;;;;;;;3.95;1.48;;;2.10;99.90;;;;;;5009109;28;20141;-77
2022/03/06 07:45:06;;;;;;;3.50;1.60;;;2.20;99.90;;;;;;5023839;28;20120;-76
2022/03/06 07:47:32;;;;;;;3.67;1.52;;;2.30;99.90;;;;;;5026676;28;20407;-77
2022/03/06 07:49:58;;;;;;;7.18;1.58;;;2.40;99.90;;;;;;5009241;28;20069;-77
2022/03/06 07:52:24;;;;;;;2.53;1.17;;;2.40;99.90;;;;;;5007566;28;20084;-76
2022/03/06 07:54:50;;;;;;;3.00;1.20;;;2.40;99.90;;;;;;5006612;28;20368;-77
2022/03/06 07:57:16;;;;;;;2.70;1.20;;;2.50;99.90;;;;;;5007951;28;20076;-78
2022/03/06 07:59:41;;;;;;;2.80;1.40;;;2.60;99.90;;;;;;5009461;28;20045;-77
2022/03/06 08:02:07;;;;;;;1.95;1.00;;;2.70;99.90;;;;;;5011753;28;20076;-77
2022/03/06 08:04:33;;;;;;;3.50;1.30;;;2.80;99.90;;;;;;5000809;28;20442;-77
2022/03/06 08:06:58;;;;;;;2.20;1.58;;;2.90;99.90;;;;;;4976808;28;20068;-77
2022/03/06 08:09:24;;;;;;;2.90;1.42;;;2.90;99.90;;;;;;5021654;28;20041;-77
2022/03/06 08:11:51;;;;;;;6.90;1.90;;;3.00;99.90;;;;;;5008178;28;20496;-77
2022/03/06 08:14:17;;;;;;;2.53;1.30;;;3.10;99.90;;;;;;4997475;28;20092;-77
2022/03/06 08:16:43;;;;;;;4.63;1.70;;;3.20;99.90;;;;;;5007332;28;20080;-77
2022/03/06 08:19:09;;;;;;;3.90;1.67;;;3.20;99.90;;;;;;5026220;28;20119;-77
2022/03/06 08:21:34;;;;;;;3.35;1.60;;;3.40;99.90;;;;;;5011450;28;20080;-77
2022/03/06 08:24:00;;;;;;;5.47;1.63;;;3.50;99.90;;;;;;5015735;28;20064;-77
2022/03/06 08:26:26;;;;;;;2.75;1.50;;;3.50;99.90;;;;;;4972768;28;20076;-77
2022/03/06 08:28:53;;;;;;;2.58;1.48;;;3.60;99.90;;;;;;5009588;28;20053;-78
2022/03/06 08:31:19;;;;;;;1.13;1.13;;;3.70;99.90;;;;;;5008578;28;20076;-77
2022/03/06 08:33:46;;;;;;;4.88;1.90;;;3.70;99.90;;;;;;5009942;28;20077;-77
2022/03/06 08:36:12;;;;;;;4.05;1.55;;;3.70;99.90;;;;;;5014130;28;20549;-78
2022/03/06 08:38:39;;;;;;;3.08;1.45;;;3.80;99.90;;;;;;5011172;28;20079;-77
2022/03/06 08:41:04;;;;;;;2.78;1.27;;;3.80;99.90;;;;;;4983960;28;20047;-78
2022/03/06 08:43:30;;;;;;;4.65;1.50;;;3.90;98.80;;;;;;5011188;28;20049;-77
2022/03/06 08:45:56;;;;;;;3.13;1.30;;;3.90;99.70;;;;;;5013201;28;20051;-78
2022/03/06 08:48:22;;;;;;;3.33;1.20;;;3.90;98.40;;;;;;5012962;28;20115;-78
2022/03/06 08:50:51;;;;;;;1.75;1.05;;;3.90;98.10;;;;;;4975954;28;20072;-78
2022/03/06 08:53:18;;;;;;;4.03;1.60;;;4.00;99.90;;;;;;5010694;28;20026;-77
2022/03/06 08:55:44;;;;;;;4.20;1.65;;;3.90;99.80;;;;;;4994696;28;20049;-77
2022/03/06 08:58:10;;;;;;;3.28;1.60;;;4.00;99.70;;;;;;5014538;28;20476;-77
2022/03/06 09:00:36;;;;;;;4.75;1.42;;;4.10;98.80;;;;;;4996489;28;20151;-78
2022/03/06 09:03:02;;;;;;;7.57;1.88;;;4.10;94.90;;;;;;4997672;28;20053;-77
2022/03/06 09:05:27;;;;;;;4.35;1.60;;;4.30;98.30;;;;;;4996432;28;20115;-77
2022/03/06 09:07:53;;;;;;;2.17;1.40;;;4.30;96.70;;;;;;5011659;28;20049;-79
2022/03/06 09:10:19;;;;;;;3.00;1.60;;;4.30;93.70;;;;;;5010035;28;21011;-78
2022/03/06 09:12:45;;;;;;;6.45;1.52;;;4.30;95.10;;;;;;5006923;28;20124;-78
2022/03/06 09:15:11;;;;;;;4.70;1.80;;;4.30;95.70;;;;;;4992996;28;20085;-78
2022/03/06 09:17:37;;;;;;;1.75;1.50;;;4.20;95.50;;;;;;5009351;28;20054;-78
2022/03/06 09:20:04;;;;;;;4.65;1.70;;;4.30;95.90;;;;;;5007875;28;20559;-80
2022/03/06 09:22:30;;;;;;;4.38;1.58;;;4.40;98.30;;;;;;5008504;28;20122;-78
2022/03/06 09:24:56;;;;;;;2.47;1.25;;;4.40;93.30;;;;;;4978013;28;20491;-77
2022/03/06 09:27:21;;;;;;;4.82;1.98;;;4.40;93.30;;;;;;5010413;28;20103;-77
2022/03/06 09:29:47;;;;;;;3.45;1.60;;;4.30;92.40;;;;;;5007684;28;20042;-78
2022/03/06 09:32:13;;;;;;;7.70;1.92;;;4.30;95.30;;;;;;5008739;28;20884;-77
2022/03/06 09:34:38;;;;;;;2.08;1.40;;;4.20;91.60;;;;;;5009829;28;20049;-77
2022/03/06 09:37:07;;;;;;;6.20;1.65;;;4.40;94.50;;;;;;5024771;28;20044;-78
2022/03/06 09:39:33;;;;;;;5.25;1.70;;;4.40;93.00;;;;;;5009547;28;20037;-78
2022/03/06 09:41:59;;;;;;;4.10;1.30;;;4.60;96.40;;;;;;5010545;28;20552;-78
2022/03/06 09:44:27;;;;;;;1.58;1.30;;;4.50;93.50;;;;;;5004566;28;20054;-78
2022/03/06 09:46:57;;;;;;;3.13;1.30;;;4.50;93.90;;;;;;5011154;28;20056;-78
2022/03/06 09:49:23;;;;;;;3.60;1.75;;;4.50;91.70;;;;;;5016031;28;20172;-78
2022/03/06 09:51:50;;;;;;;2.65;1.42;;;4.60;94.90;;;;;;5015108;28;20045;-78
2022/03/06 09:54:16;;;;;;;4.88;1.25;;;4.60;92.00;;;;;;5015697;28;20404;-78
2022/03/06 09:56:43;;;;;;;2.15;1.40;;;4.60;91.30;;;;;;5018203;28;20057;-78
2022/03/06 09:59:10;;;;;;;3.03;1.48;;;4.70;92.40;;;;;;5015045;28;20049;-77
2022/03/06 10:01:35;;;;;;;3.30;1.70;;;4.80;94.70;;;;;;5014589;28;20076;-77
2022/03/06 10:04:25;;;;;;;4.63;1.33;;;4.90;94.10;;;;;;4998296;28;20088;-78
2022/03/06 10:07:02;;;;;;;4.28;1.33;;;4.90;94.00;;;;;;5018981;28;20076;-77
2022/03/06 10:09:30;;;;;;;2.13;1.40;;;4.80;90.80;;;;;;5011033;28;20488;-77
2022/03/06 10:11:56;;;;;;;2.20;1.50;;;4.90;92.80;;;;;;5006302;28;20258;-76
2022/03/06 10:14:36;;;;;;;1.88;1.25;;;5.00;92.40;;;;;;5013681;28;20441;-78
2022/03/06 10:17:18;;;;;;;4.38;1.70;;;4.90;93.60;;;;;;5014887;28;20049;-78
2022/03/06 10:19:56;;;;;;;1.90;1.05;;;5.10;93.40;;;;;;4994253;28;20327;-78
2022/03/06 10:22:44;;;;;;;4.25;1.90;;;5.30;90.00;;;;;;5005935;28;20395;-78
2022/03/06 10:25:13;;;;;;;2.50;1.70;;;5.20;91.60;;;;;;5010015;28;20396;-77
2022/03/06 10:27:42;;;;;;;4.35;1.70;;;5.30;93.10;;;;;;5007960;28;20500;-77
2022/03/06 10:30:32;;;;;;;2.92;1.63;;;5.10;90.00;;;;;;5006726;28;20045;-77
2022/03/06 10:33:10;;;;;;;7.43;1.60;;;5.10;87.60;;;;;;5007528;28;20033;-77
2022/03/06 10:35:44;;;;;;;5.43;1.77;;;5.10;90.50;;;;;;5006204;28;20508;-77
2022/03/06 10:38:21;;;;;;;4.32;1.50;;;5.30;92.40;;;;;;5024604;28;20502;-77
2022/03/06 10:40:49;;;;;;;3.83;1.95;;;5.40;90.10;;;;;;5006153;28;20508;-77
2022/03/06 10:43:27;;;;;;;4.72;1.70;;;5.30;86.20;;;;;;5003422;28;20042;-77
2022/03/06 10:46:15;;;;;;;3.28;1.63;;;5.40;93.10;;;;;;4998183;28;20076;-77
2022/03/06 10:48:58;;;;;;;4.13;1.88;;;5.60;92.70;;;;;;4992950;28;20034;-77
2022/03/06 10:51:25;;;;;;;2.70;1.75;;;5.60;93.60;;;;;;4987462;28;20045;-77
2022/03/06 10:53:58;;;;;;;3.22;1.45;;;5.60;87.20;;;;;;5008294;28;20044;-77
2022/03/06 10:56:25;;;;;;;2.67;1.27;;;5.70;92.00;;;;;;4992322;28;20086;-77
2022/03/06 10:58:51;;;;;;;5.35;2.05;;;5.70;89.10;;;;;;5011028;28;20446;-77
2022/03/06 11:01:17;;;;;;;3.30;1.58;;;5.60;89.00;;;;;;5010147;28;20479;-77
2022/03/06 11:03:43;;;;;;;4.50;1.70;;;5.80;91.30;;;;;;5012174;28;20049;-77
2022/03/06 11:06:11;;;;;;;4.50;2.25;;;5.80;88.20;;;;;;5009829;28;20125;-77
2022/03/06 11:08:38;;;;;;;2.05;1.52;;;5.80;90.50;;;;;;4996327;28;20752;-77
2022/03/06 11:11:08;;;;;;;2.60;1.52;;;5.70;92.00;;;;;;5005306;28;20038;-77
2022/03/06 11:13:34;;;;;;;5.68;1.73;;;5.80;91.30;;;;;;4999029;28;20045;-77
2022/03/06 11:16:01;;;;;;;3.75;1.63;;;5.80;92.50;;;;;;5005640;28;20069;-78
2022/03/06 11:18:28;;;;;;;5.88;1.70;;;5.80;93.30;;;;;;5006701;28;20041;-79
2022/03/06 11:20:56;;;;;;;2.35;1.10;;;5.90;92.30;;;;;;5007855;28;20042;-80
2022/03/06 11:23:52;;;;;;;5.35;1.70;;;5.80;94.40;;;;;;5010233;28;20119;-78
2022/03/06 11:26:43;;;;;;;3.80;1.63;;;5.80;91.80;;;;;;5005689;28;20053;-79
2022/03/06 11:29:39;;;;;;;2.97;1.58;;;5.80;91.40;;;;;;5007299;28;20053;-77
2022/03/06 11:32:07;;;;;;;4.75;1.52;;;6.00;93.60;;;;;;5007658;28;20042;-77
2022/03/06 11:34:38;;;;;;;4.70;1.77;;;6.00;91.50;;;;;;4991492;28;20048;-77
2022/03/06 11:37:11;;;;;;;5.45;1.70;;;5.90;92.40;;;;;;5006345;28;20057;-77
2022/03/06 11:39:36;;;;;;;8.88;2.15;;;5.90;96.50;;;;;;5021797;28;20041;-77
2022/03/06 11:42:08;;;;;;;4.20;1.95;;;6.20;92.60;;;;;;5005099;28;20030;-78
2022/03/06 11:44:47;;;;;;;6.22;2.08;;;6.20;90.20;;;;;;5010295;28;20049;-77
2022/03/06 11:47:24;;;;;;;4.68;2.22;;;6.10;94.90;;;;;;5007326;28;20063;-76
2022/03/06 11:49:54;;;;;;;4.40;1.55;;;6.10;97.50;;;;;;5022548;28;20591;-77
2022/03/06 11:52:30;;;;;;;;;;;6.10;96.60;;;;;;5023804;28;20045;-77
2022/03/06 11:54:56;;;;;;;4.35;1.77;;;6.00;93.50;;;;;;5005215;28;19956;-77
2022/03/06 11:57:39;;;;;;;6.40;1.90;;;5.80;96.40;;;;;;5005954;28;20037;-77
2022/03/06 12:00:20;;;;;;;3.95;1.58;;;5.60;96.90;;;;;;5022303;28;20048;-76
2022/03/06 12:02:49;;;;;;;2.97;1.73;;;5.50;98.60;;;;;;5017258;28;20509;-76
2022/03/06 12:05:16;;;;;;;5.75;2.50;;;5.50;99.30;;;;;;5004139;28;20080;-76
2022/03/06 12:07:44;;;;;;;2.03;1.60;;;5.60;99.90;;;;;;5024124;28;20406;-76
2022/03/06 12:10:11;;;;;;;6.20;2.25;;;5.60;97.20;;;;;;5012109;28;20109;-77
2022/03/06 12:12:38;;;;;;;4.32;2.03;;;5.70;99.30;;;;;;5025973;28;20036;-76
2022/03/06 12:15:24;;;;;;;4.05;1.50;;;5.70;99.70;;;;;;5012898;28;20040;-76
2022/03/06 12:17:50;;;;;;;3.13;1.67;;;5.80;98.60;;;;;;5014697;28;20057;-77
2022/03/06 12:20:23;;;;;;;4.85;1.90;;;5.80;97.10;;;;;;5003249;28;20502;-76
2022/03/06 12:22:51;;;;;;;2.83;1.50;;;5.80;98.60;;;;;;5002012;28;20077;-77
2022/03/06 12:25:24;;;;;;;2.40;1.70;;;5.80;95.30;;;;;;4998915;28;20042;-76
2022/03/06 12:28:02;;;;;;;4.35;2.20;;;5.80;99.40;;;;;;5003699;28;20049;-76
2022/03/06 12:30:29;;;;;;;7.50;1.90;;;5.60;95.90;;;;;;5007218;28;20046;-77
2022/03/06 12:32:55;;;;;;;2.13;1.80;;;5.60;99.30;;;;;;5006336;28;20138;-76
2022/03/06 12:35:22;;;;;;;7.38;2.13;;;5.80;99.90;;;;;;5006499;28;20064;-77
2022/03/06 12:38:06;;;;;;;4.00;1.85;;;5.80;99.90;;;;;;5006680;28;20537;-77
2022/03/06 12:40:32;;;;;;;3.72;1.92;;;6.00;99.90;;;;;;5006607;28;20038;-76
2022/03/06 12:43:03;;;;;;;3.78;2.13;;;6.00;99.90;;;;;;5005699;28;20404;-76
2022/03/06 12:45:30;;;;;;;3.83;1.75;;;6.20;99.90;;;;;;5003531;28;20054;-76
2022/03/06 12:47:56;;;;;;;6.78;2.22;;;6.20;97.40;;;;;;5007272;28;20387;-77
2022/03/06 12:50:24;;;;;;;5.78;2.10;;;6.20;99.90;;;;;;5007195;28;20033;-77
2022/03/06 12:52:56;;;;;;;6.03;2.40;;;5.90;99.90;;;;;;4985446;28;20063;-77
2022/03/06 12:55:24;;;;;;;7.00;2.65;;;5.90;99.90;;;;;;5007874;28;20172;-76
2022/03/06 12:57:53;;;;;;;7.97;2.20;;;6.00;99.90;;;;;;5009803;28;20395;-76
2022/03/06 13:00:26;;;;;;;7.32;2.50;;;6.10;99.90;;;;;;5007594;28;20048;-76